LFGJ/DLE METAR and TAF weather

Enter ICAO airport designator
Station Type Date Time Source
LFGJ METAR 2022/11/26 10:00 UTC NOAA

LFGJ 261000Z AUTO 05004KT 360V090 0700 0600 R05/0800D FG OVC002 06/06 Q1031 BECMG 8000 NSW BKN007


Station Type Date Time Source
LFGJ Decoded METAR 2022/11/26 10:00 UTC NOAA

Dole Tavaux, France (LFGJ) 47-02-34N 005-26-06E
Nov 26, 2022 - 05:00 AM EST / 2022.11.26 1000 UTC
Wind: from the NE (050 degrees) at 5 MPH (4 KT) (direction variable):0
Visibility: less than 1 mile:0
Sky conditions: overcast
Weather: fog
Temperature: 42 F (6 C)
Dew Point: 42 F (6 C)
Relative Humidity: 100%
Pressure (altimeter): 30.45 in. Hg (1031 hPa)
ob: LFGJ 261000Z AUTO 05004KT 360V090 0700 0600 R05/0800D FG OVC002 06/06 Q1031 BECMG 8000 NSW BKN007
cycle: 10

Station Type Date Time Source
LFGJ TAF 2020/06/22 09:21 UTC NOAA

TAF LFGJ 220800Z 2209/2221 01008KT 9999 FEW035 BKN053
BECMG 2212/2215 CAVOK

Example: see airport list